createdAt,value
2023-02-26T00:02:00.933Z,4.30
2023-02-26T00:05:59.122Z,4.60
2023-02-26T00:10:01.138Z,3.60
2023-02-26T00:13:54.756Z,4.10
2023-02-26T00:17:58.795Z,2.10
2023-02-26T00:21:57.166Z,1.50
2023-02-26T00:25:59.300Z,2.00
2023-02-26T00:29:57.305Z,2.80
2023-02-26T00:34:01.711Z,2.60
2023-02-26T00:38:01.281Z,2.30
2023-02-26T00:41:58.713Z,2.20
2023-02-26T00:45:52.191Z,2.20
2023-02-26T00:53:34.385Z,2.80
2023-02-26T00:57:32.273Z,2.50
2023-02-26T01:01:34.190Z,1.80
2023-02-26T01:05:30.076Z,1.60
2023-02-26T01:09:29.616Z,2.00
2023-02-26T01:13:25.976Z,1.80
2023-02-26T01:17:29.553Z,1.90
2023-02-26T01:21:30.492Z,2.10
2023-02-26T01:25:29.931Z,1.90
2023-02-26T01:29:26.240Z,2.20
2023-02-26T01:33:25.635Z,2.00
2023-02-26T01:37:22.052Z,1.40
2023-02-26T01:41:19.134Z,2.40
2023-02-26T01:45:12.345Z,1.80
2023-02-26T01:49:15.635Z,2.00
2023-02-26T01:53:12.301Z,2.60
2023-02-26T01:57:11.807Z,2.20
2023-02-26T02:01:10.032Z,2.70
2023-02-26T02:05:09.378Z,2.10
2023-02-26T02:09:02.617Z,2.20
2023-02-26T02:13:00.387Z,2.10
2023-02-26T02:16:56.046Z,2.20
2023-02-26T02:20:55.730Z,2.20
2023-02-26T02:24:51.097Z,2.20
2023-02-26T02:28:52.839Z,2.20
2023-02-26T02:32:50.140Z,2.20
2023-02-26T02:36:48.706Z,2.10
2023-02-26T02:40:41.982Z,2.20
2023-02-26T02:44:41.683Z,2.10
2023-02-26T02:48:37.375Z,2.30
2023-02-26T02:52:36.539Z,1.90
2023-02-26T02:56:33.115Z,2.50
2023-02-26T03:00:33.671Z,1.90
2023-02-26T03:04:27.646Z,2.10
2023-02-26T03:08:31.200Z,2.10
2023-02-26T03:12:26.762Z,2.10
2023-02-26T03:16:28.305Z,2.00
2023-02-26T03:20:24.289Z,2.10
2023-02-26T03:24:25.711Z,1.80
2023-02-26T03:28:21.176Z,1.60
2023-02-26T03:32:19.773Z,2.10
2023-02-26T03:36:21.013Z,2.10
2023-02-26T03:40:29.468Z,2.00
2023-02-26T03:44:25.382Z,2.00
2023-02-26T03:48:25.807Z,1.80
2023-02-26T03:52:23.379Z,2.20
2023-02-26T03:56:50.129Z,2.40
2023-02-26T04:01:06.314Z,1.80
2023-02-26T04:05:06.018Z,2.40
2023-02-26T04:09:02.505Z,1.90
2023-02-26T04:13:02.939Z,1.80
2023-02-26T04:16:55.974Z,2.00
2023-02-26T04:21:00.576Z,2.00
2023-02-26T04:24:56.534Z,2.20
2023-02-26T04:28:58.007Z,2.00
2023-02-26T04:32:54.536Z,2.00
2023-02-26T04:36:53.983Z,1.70
2023-02-26T04:40:50.560Z,1.90
2023-02-26T04:44:48.888Z,1.80
2023-02-26T04:48:49.180Z,2.60
2023-02-26T04:52:55.968Z,6.60
2023-02-26T04:56:53.649Z,2.20
2023-02-26T05:00:53.867Z,1.90
2023-02-26T05:04:49.652Z,1.90
2023-02-26T05:08:59.803Z,2.50
2023-02-26T05:12:59.703Z,2.30
2023-02-26T05:16:59.923Z,1.90
2023-02-26T05:20:57.016Z,2.30
2023-02-26T05:24:57.236Z,2.20
2023-02-26T05:28:50.654Z,1.70
2023-02-26T05:32:50.162Z,2.20
2023-02-26T05:36:46.716Z,2.20
2023-02-26T05:40:48.291Z,1.90
2023-02-26T05:44:44.684Z,2.50
2023-02-26T05:48:45.905Z,2.00
2023-02-26T05:52:43.619Z,1.80
2023-02-26T05:56:43.161Z,5.00
2023-02-26T06:00:38.511Z,2.30
2023-02-26T06:04:37.833Z,2.30
2023-02-26T06:08:33.854Z,2.90
2023-02-26T06:12:33.515Z,3.00
2023-02-26T06:16:27.271Z,2.30
2023-02-26T06:20:28.108Z,3.00
2023-02-26T06:24:23.904Z,2.10
2023-02-26T06:28:22.804Z,2.70
2023-02-26T06:32:28.932Z,2.40
2023-02-26T06:36:30.802Z,2.20
2023-02-26T06:40:26.691Z,2.00
2023-02-26T06:44:27.330Z,2.70
2023-02-26T06:48:23.770Z,2.60
2023-02-26T06:52:21.618Z,4.80
2023-02-26T06:56:15.368Z,2.70
2023-02-26T07:00:16.562Z,2.40
2023-02-26T07:04:12.692Z,2.60
2023-02-26T07:08:15.055Z,4.40
2023-02-26T07:12:21.941Z,4.40
2023-02-26T07:16:21.795Z,4.30
2023-02-26T07:20:26.077Z,10.60
2023-02-26T07:24:29.418Z,4.80
2023-02-26T07:28:31.666Z,2.40
2023-02-26T07:32:35.858Z,2.40
2023-02-26T07:36:39.090Z,2.50
2023-02-26T07:40:52.757Z,2.40
2023-02-26T07:44:59.594Z,3.10
2023-02-26T07:48:55.746Z,2.30
2023-02-26T07:52:56.373Z,2.60
2023-02-26T07:56:58.969Z,2.70
2023-02-26T08:05:34.074Z,3.10
2023-02-26T08:09:36.471Z,2.90
2023-02-26T08:13:49.182Z,4.70
2023-02-26T08:17:53.322Z,3.40
2023-02-26T08:22:15.170Z,3.40
2023-02-26T08:26:22.728Z,5.70
2023-02-26T08:30:39.908Z,4.00
2023-02-26T08:34:42.513Z,4.10
2023-02-26T08:39:05.326Z,5.50
2023-02-26T08:43:09.485Z,4.00
2023-02-26T08:52:42.631Z,3.20
2023-02-26T09:00:12.749Z,3.30
2023-02-26T09:00:27.598Z,2.50
2023-02-26T09:01:54.057Z,2.90
2023-02-26T09:05:55.999Z,3.10
2023-02-26T09:09:57.688Z,2.90
2023-02-26T09:13:57.972Z,3.40
2023-02-26T09:18:04.636Z,2.80
2023-02-26T09:22:01.083Z,2.40
2023-02-26T09:25:58.901Z,3.40
2023-02-26T09:29:58.310Z,2.70
2023-02-26T09:33:54.158Z,3.00
2023-02-26T09:37:53.963Z,2.60
2023-02-26T09:41:50.043Z,2.60
2023-02-26T09:45:49.534Z,3.40
2023-02-26T09:49:46.232Z,2.50
2023-02-26T09:53:46.467Z,3.10
2023-02-26T09:57:42.992Z,3.10
2023-02-26T10:01:42.119Z,2.80
2023-02-26T10:05:38.077Z,2.90
2023-02-26T10:09:39.628Z,3.20
2023-02-26T10:13:38.512Z,2.90
2023-02-26T10:17:41.370Z,2.60
2023-02-26T10:21:39.038Z,2.60
2023-02-26T10:25:41.852Z,2.90
2023-02-26T10:29:38.015Z,3.00
2023-02-26T10:33:39.033Z,2.30
2023-02-26T10:37:35.153Z,3.40
2023-02-26T10:41:34.132Z,3.00
2023-02-26T10:45:30.321Z,2.40
2023-02-26T10:49:30.069Z,2.10
2023-02-26T10:53:23.720Z,2.80
2023-02-26T10:57:23.037Z,3.00
2023-02-26T11:01:16.488Z,2.70
2023-02-26T11:05:16.185Z,2.70
2023-02-26T11:09:11.161Z,2.90
2023-02-26T11:13:10.353Z,2.70
2023-02-26T11:17:05.711Z,2.40
2023-02-26T11:21:05.255Z,2.60
2023-02-26T11:25:05.911Z,2.90
2023-02-26T11:29:05.425Z,2.60
2023-02-26T11:33:01.231Z,2.80
2023-02-26T11:37:01.353Z,2.50
2023-02-26T11:40:57.213Z,2.80
2023-02-26T11:44:57.103Z,2.90
2023-02-26T11:48:53.244Z,3.20
2023-02-26T11:52:55.233Z,2.60
2023-02-26T11:56:51.456Z,3.00
2023-02-26T12:00:54.187Z,3.00
2023-02-26T12:04:52.384Z,36.60
2023-02-26T12:08:56.341Z,25.90
2023-02-26T12:12:52.286Z,8.80
2023-02-26T12:16:44.193Z,4.30
2023-02-26T12:20:31.064Z,2.70
2023-02-26T12:24:19.215Z,2.90
2023-02-26T12:28:04.112Z,2.80
2023-02-26T12:31:49.680Z,3.00
2023-02-26T12:35:35.341Z,3.50
2023-02-26T12:39:20.694Z,3.70
2023-02-26T12:43:11.965Z,3.00
2023-02-26T12:47:03.335Z,2.50
2023-02-26T12:50:56.641Z,4.10
2023-02-26T12:54:54.530Z,3.70
2023-02-26T12:58:51.211Z,2.60
2023-02-26T13:02:52.444Z,2.90
2023-02-26T13:06:50.422Z,3.60
2023-02-26T13:10:50.440Z,3.30
2023-02-26T13:14:48.537Z,2.30
2023-02-26T13:18:50.450Z,2.60
2023-02-26T13:22:48.575Z,3.00
2023-02-26T13:26:50.406Z,3.20
2023-02-26T13:30:48.454Z,3.80
2023-02-26T13:34:39.092Z,5.30
2023-02-26T13:38:24.206Z,3.30
2023-02-26T13:42:12.993Z,2.80
2023-02-26T13:45:58.415Z,3.80
2023-02-26T13:49:44.320Z,3.80
2023-02-26T13:53:29.979Z,4.90
2023-02-26T13:57:15.952Z,3.80
2023-02-26T14:01:01.210Z,2.90
2023-02-26T14:04:54.016Z,2.70
2023-02-26T14:08:39.470Z,2.80
2023-02-26T14:12:29.279Z,2.30
2023-02-26T14:16:20.446Z,2.30
2023-02-26T14:20:06.073Z,2.60
2023-02-26T14:23:51.464Z,5.00
2023-02-26T14:27:42.573Z,5.10
2023-02-26T14:31:34.776Z,4.30
2023-02-26T14:35:35.035Z,2.80
2023-02-26T14:39:37.190Z,2.70
2023-02-26T14:43:39.548Z,3.00
2023-02-26T14:47:41.683Z,3.10
2023-02-26T14:51:39.656Z,3.30
2023-02-26T14:55:41.596Z,3.20
2023-02-26T14:59:37.406Z,3.00
2023-02-26T15:03:25.668Z,3.00
2023-02-26T15:07:07.684Z,2.80
2023-02-26T15:10:45.437Z,2.60
2023-02-26T15:14:20.469Z,3.10
2023-02-26T15:17:56.991Z,3.00
2023-02-26T15:21:35.018Z,3.40
2023-02-26T15:25:19.873Z,3.00
2023-02-26T15:28:48.676Z,3.10
2023-02-26T15:32:25.323Z,3.00
2023-02-26T15:35:58.752Z,3.30
2023-02-26T15:39:35.194Z,3.20
2023-02-26T15:43:08.024Z,3.20
2023-02-26T15:46:45.336Z,3.00
2023-02-26T15:50:17.848Z,3.20
2023-02-26T15:53:55.023Z,3.20
2023-02-26T15:57:27.827Z,3.90
2023-02-26T16:01:04.479Z,2.80
2023-02-26T16:04:39.588Z,3.90
2023-02-26T16:08:19.739Z,3.80
2023-02-26T16:11:58.709Z,3.30
2023-02-26T16:15:43.742Z,3.70
2023-02-26T16:19:21.899Z,3.90
2023-02-26T16:23:04.240Z,3.70
2023-02-26T16:26:41.760Z,4.70
2023-02-26T16:30:22.727Z,4.20
2023-02-26T16:34:00.863Z,4.00
2023-02-26T16:37:41.808Z,4.20
2023-02-26T16:41:18.748Z,4.60
2023-02-26T16:44:59.636Z,3.80
2023-02-26T16:48:41.758Z,4.00
2023-02-26T16:52:22.719Z,4.10
2023-02-26T16:56:00.794Z,4.30
2023-02-26T16:59:42.762Z,3.70
2023-02-26T17:03:20.009Z,5.40
2023-02-26T17:07:01.715Z,4.40
2023-02-26T17:10:39.943Z,4.40
2023-02-26T17:14:21.267Z,5.10
2023-02-26T17:17:58.881Z,6.90
2023-02-26T17:21:39.082Z,9.70
2023-02-26T17:25:21.816Z,10.40
2023-02-26T17:28:59.767Z,7.40
2023-02-26T17:32:43.941Z,5.50
2023-02-26T17:36:21.747Z,5.90
2023-02-26T17:40:03.395Z,6.60
2023-02-26T17:43:44.778Z,5.10
2023-02-26T17:47:25.902Z,5.60
2023-02-26T17:51:03.941Z,4.40
2023-02-26T17:54:45.389Z,4.30
2023-02-26T17:58:24.326Z,5.70
2023-02-26T18:02:04.453Z,4.80
2023-02-26T18:05:40.518Z,4.70
2023-02-26T18:09:19.120Z,4.20
2023-02-26T18:12:54.803Z,4.20
2023-02-26T18:16:33.654Z,4.30
2023-02-26T18:20:09.830Z,4.30
2023-02-26T18:23:48.691Z,3.80
2023-02-26T18:27:23.962Z,4.10
2023-02-26T18:31:03.002Z,3.40
2023-02-26T18:34:40.668Z,4.20
2023-02-26T18:38:19.854Z,3.90
2023-02-26T18:41:54.691Z,3.90
2023-02-26T18:45:34.082Z,3.10
2023-02-26T18:49:10.077Z,3.80
2023-02-26T18:52:49.158Z,3.80
2023-02-26T18:56:24.902Z,3.30
2023-02-26T19:00:03.791Z,3.60
2023-02-26T19:03:40.265Z,4.00
2023-02-26T19:07:19.388Z,3.50
2023-02-26T19:10:55.196Z,4.00
2023-02-26T19:14:40.641Z,3.80
2023-02-26T19:18:16.099Z,3.50
2023-02-26T19:21:54.684Z,4.10
2023-02-26T19:25:34.661Z,5.00
2023-02-26T19:29:12.917Z,4.90
2023-02-26T19:32:48.852Z,5.00
2023-02-26T19:36:27.743Z,4.80
2023-02-26T19:40:03.050Z,3.70
2023-02-26T19:43:42.602Z,4.10
2023-02-26T19:47:17.998Z,4.80
2023-02-26T19:50:57.035Z,4.80
2023-02-26T19:54:32.969Z,5.70
2023-02-26T19:58:12.050Z,4.60
2023-02-26T20:01:48.080Z,4.50
2023-02-26T20:05:25.778Z,5.00
2023-02-26T20:09:05.081Z,5.70
2023-02-26T20:12:41.022Z,5.60
2023-02-26T20:16:20.497Z,5.50
2023-02-26T20:19:56.083Z,5.80
2023-02-26T20:23:36.153Z,5.60
2023-02-26T20:27:12.306Z,6.00
2023-02-26T20:30:51.555Z,7.10
2023-02-26T20:34:27.140Z,5.80
2023-02-26T20:38:05.822Z,5.40
2023-02-26T20:41:42.746Z,4.90
2023-02-26T20:45:22.160Z,4.90
2023-02-26T20:48:57.756Z,5.00
2023-02-26T20:52:36.578Z,4.70
2023-02-26T20:56:11.903Z,4.50
2023-02-26T20:59:51.082Z,4.40
2023-02-26T21:03:27.112Z,4.10
2023-02-26T21:07:06.559Z,4.80
2023-02-26T21:10:42.933Z,5.00
2023-02-26T21:14:22.711Z,4.40
2023-02-26T21:17:57.700Z,4.70
2023-02-26T21:21:29.385Z,7.20
2023-02-26T21:25:06.202Z,9.10
2023-02-26T21:28:45.967Z,7.80
2023-02-26T21:32:21.278Z,8.60
2023-02-26T21:35:53.217Z,7.70
2023-02-26T21:39:27.850Z,7.40
2023-02-26T21:42:59.303Z,6.40
2023-02-26T21:46:23.929Z,4.30
2023-02-26T21:49:48.539Z,4.10
2023-02-26T21:53:22.360Z,4.10
2023-02-26T21:56:59.941Z,3.80
2023-02-26T22:00:34.753Z,4.90
2023-02-26T22:04:12.213Z,4.70
2023-02-26T22:07:49.042Z,5.10
2023-02-26T22:11:29.367Z,4.90
2023-02-26T22:15:10.643Z,4.50
2023-02-26T22:18:44.901Z,5.10
2023-02-26T22:22:17.787Z,8.50
2023-02-26T22:25:50.350Z,11.60
2023-02-26T22:29:15.343Z,7.80
2023-02-26T22:32:39.710Z,4.60
2023-02-26T22:36:12.624Z,4.00
2023-02-26T22:39:49.815Z,4.40
2023-02-26T22:43:25.341Z,4.50
2023-02-26T22:47:02.766Z,4.70
2023-02-26T22:50:38.381Z,4.50
2023-02-26T22:54:16.004Z,5.10
2023-02-26T22:57:51.102Z,5.50
2023-02-26T23:01:28.924Z,6.00
2023-02-26T23:05:04.300Z,6.60
2023-02-26T23:08:43.365Z,6.40
2023-02-26T23:12:18.828Z,6.40
2023-02-26T23:15:56.368Z,5.00
2023-02-26T23:19:32.432Z,5.60
2023-02-26T23:23:10.317Z,6.10
2023-02-26T23:26:45.253Z,5.80
2023-02-26T23:30:27.384Z,6.50
2023-02-26T23:34:03.169Z,5.60
2023-02-26T23:37:43.087Z,5.70
2023-02-26T23:41:18.169Z,5.30
2023-02-26T23:44:56.060Z,5.60
2023-02-26T23:48:31.399Z,4.70
2023-02-26T23:52:15.075Z,5.60
2023-02-26T23:55:47.931Z,6.30
